createdAt,value
2023-05-17T00:00:25.169Z,10.07
2023-05-17T00:01:25.779Z,10.06
2023-05-17T00:02:26.379Z,10.05
2023-05-17T00:03:26.256Z,10.02
2023-05-17T00:04:27.492Z,10
2023-05-17T00:05:28.673Z,10.07
2023-05-17T00:06:29.091Z,10.06
2023-05-17T00:07:28.945Z,9.95
2023-05-17T00:08:29.626Z,9.97
2023-05-17T00:09:30.297Z,9.97
2023-05-17T00:10:30.811Z,9.97
2023-05-17T00:11:31.460Z,9.99
2023-05-17T00:12:32.182Z,9.97
2023-05-17T00:13:32.532Z,10.02
2023-05-17T00:14:33.757Z,10.07
2023-05-17T00:15:34.217Z,9.95
2023-05-17T00:16:34.702Z,10.05
2023-05-17T00:17:35.642Z,10.02
2023-05-17T00:18:35.986Z,10.03
2023-05-17T00:19:36.289Z,9.97
2023-05-17T00:20:36.503Z,9.95
2023-05-17T00:21:36.536Z,10.02
2023-05-17T00:22:37.211Z,10.07
2023-05-17T00:23:37.293Z,9.99
2023-05-17T00:24:37.779Z,9.94
2023-05-17T00:25:38.532Z,9.97
2023-05-17T00:26:39.251Z,9.99
2023-05-17T00:27:39.742Z,9.94
2023-05-17T00:28:39.804Z,9.84
2023-05-17T00:29:41.021Z,9.9
2023-05-17T00:30:40.995Z,9.82
2023-05-17T00:31:41.927Z,9.73
2023-05-17T00:32:43.311Z,9.76
2023-05-17T00:33:42.954Z,9.76
2023-05-17T00:34:44.045Z,9.77
2023-05-17T00:35:44.185Z,9.76
2023-05-17T00:36:44.479Z,9.64
2023-05-17T00:37:44.734Z,9.66
2023-05-17T00:38:45.422Z,9.77
2023-05-17T00:39:46.098Z,9.63
2023-05-17T00:40:46.570Z,9.51
2023-05-17T00:41:47.080Z,9.54
2023-05-17T00:42:47.558Z,9.56
2023-05-17T00:43:48.519Z,9.54
2023-05-17T00:44:49.493Z,9.58
2023-05-17T00:45:50.210Z,9.55
2023-05-17T00:46:50.533Z,9.54
2023-05-17T00:47:51.684Z,9.54
2023-05-17T00:48:51.926Z,9.54
2023-05-17T00:49:53.241Z,9.48
2023-05-17T00:50:53.158Z,9.48
2023-05-17T00:51:53.809Z,9.44
2023-05-17T00:52:54.338Z,9.37
2023-05-17T00:53:55.047Z,9.39
2023-05-17T00:54:55.619Z,9.4
2023-05-17T00:55:56.332Z,9.45
2023-05-17T00:56:56.834Z,9.4
2023-05-17T00:57:57.511Z,9.33
2023-05-17T00:58:57.855Z,9.3
2023-05-17T00:59:58.832Z,9.26
2023-05-17T01:00:59.714Z,9.16
2023-05-17T01:01:59.550Z,9.29
2023-05-17T01:03:00.345Z,9.19
2023-05-17T01:04:00.407Z,9.26
2023-05-17T01:05:00.951Z,9.29
2023-05-17T01:06:00.481Z,9.24
2023-05-17T01:07:00.955Z,9.21
2023-05-17T01:08:01.917Z,9.29
2023-05-17T01:09:02.196Z,9.24
2023-05-17T01:10:02.467Z,9.16
2023-05-17T01:11:02.948Z,9.27
2023-05-17T01:12:03.693Z,9.3
2023-05-17T01:13:03.962Z,9.24
2023-05-17T01:14:04.842Z,9.29
2023-05-17T01:15:05.702Z,9.29
2023-05-17T01:16:05.500Z,9.29
2023-05-17T01:17:06.430Z,9.29
2023-05-17T01:18:07.421Z,9.31
2023-05-17T01:19:08.397Z,9.29
2023-05-17T01:20:09.487Z,9.21
2023-05-17T01:21:09.520Z,9.27
2023-05-17T01:22:09.822Z,9.31
2023-05-17T01:23:10.504Z,9.33
2023-05-17T01:24:11.020Z,9.27
2023-05-17T01:25:12.090Z,9.33
2023-05-17T01:26:12.549Z,9.29
2023-05-17T01:27:13.042Z,9.29
2023-05-17T01:28:13.721Z,9.27
2023-05-17T01:29:14.620Z,9.19
2023-05-17T01:30:15.312Z,9.26
2023-05-17T01:31:16.070Z,9.21
2023-05-17T01:32:16.736Z,9.21
2023-05-17T01:33:17.565Z,9.13
2023-05-17T01:34:17.948Z,9.12
2023-05-17T01:35:18.371Z,9
2023-05-17T01:36:18.790Z,9.11
2023-05-17T01:37:19.256Z,9
2023-05-17T01:38:19.726Z,9.05
2023-05-17T01:39:20.651Z,9.02
2023-05-17T01:40:21.360Z,9.13
2023-05-17T01:41:22.187Z,9.08
2023-05-17T01:42:22.668Z,9.08
2023-05-17T01:43:23.870Z,9.05
2023-05-17T01:44:24.363Z,9.02
2023-05-17T01:45:25.091Z,9
2023-05-17T01:46:25.140Z,9.05
2023-05-17T01:47:26.076Z,9.11
2023-05-17T01:48:26.785Z,9.08
2023-05-17T01:49:26.595Z,9
2023-05-17T01:50:27.503Z,9.11
2023-05-17T01:51:27.481Z,9.09
2023-05-17T01:52:28.356Z,8.96
2023-05-17T01:53:29.056Z,9.03
2023-05-17T01:54:29.744Z,9.13
2023-05-17T01:55:30.551Z,9.05
2023-05-17T01:56:31.238Z,9
2023-05-17T01:57:31.903Z,9.08
2023-05-17T01:58:32.886Z,9.02
2023-05-17T01:59:33.538Z,9.02
2023-05-17T02:00:34.776Z,9
2023-05-17T02:01:34.616Z,9.02
2023-05-17T02:02:35.240Z,9.03
2023-05-17T02:03:36.081Z,9
2023-05-17T02:04:37.027Z,9
2023-05-17T02:05:38.206Z,8.96
2023-05-17T02:06:37.971Z,8.96
2023-05-17T02:07:38.901Z,8.95
2023-05-17T02:08:39.606Z,8.95
2023-05-17T02:09:40.491Z,8.95
2023-05-17T02:10:40.781Z,8.96
2023-05-17T02:11:41.272Z,8.89
2023-05-17T02:12:42.059Z,9.02
2023-05-17T02:13:42.333Z,8.96
2023-05-17T02:14:42.800Z,8.95
2023-05-17T02:15:43.637Z,9.02
2023-05-17T02:16:43.440Z,8.93
2023-05-17T02:17:44.353Z,9.03
2023-05-17T02:18:44.877Z,8.96
2023-05-17T02:19:44.692Z,8.95
2023-05-17T02:20:46.024Z,8.93
2023-05-17T02:21:45.658Z,8.92
2023-05-17T02:22:46.114Z,8.92
2023-05-17T02:23:46.391Z,8.92
2023-05-17T02:24:47.067Z,8.97
2023-05-17T02:25:47.368Z,8.92
2023-05-17T02:26:47.677Z,8.99
2023-05-17T02:27:48.366Z,8.95
2023-05-17T02:28:48.872Z,8.9
2023-05-17T02:29:49.364Z,8.79
2023-05-17T02:30:49.768Z,8.81
2023-05-17T02:31:50.534Z,8.79
2023-05-17T02:32:51.992Z,8.78
2023-05-17T02:33:52.380Z,8.9
2023-05-17T02:34:52.681Z,8.79
2023-05-17T02:35:53.188Z,8.92
2023-05-17T02:36:54.004Z,9
2023-05-17T02:37:54.691Z,9
2023-05-17T02:38:55.225Z,8.92
2023-05-17T02:39:55.740Z,8.81
2023-05-17T02:40:56.486Z,8.81
2023-05-17T02:41:56.759Z,8.86
2023-05-17T02:42:57.969Z,8.82
2023-05-17T02:43:58.706Z,8.79
2023-05-17T02:44:59.200Z,8.84
2023-05-17T02:46:00.592Z,8.9
2023-05-17T02:47:01.334Z,8.81
2023-05-17T02:48:02.274Z,8.84
2023-05-17T02:49:03.049Z,8.86
2023-05-17T02:50:03.533Z,8.9
2023-05-17T02:51:04.418Z,8.79
2023-05-17T02:52:03.998Z,8.87
2023-05-17T02:53:05.117Z,8.84
2023-05-17T02:54:05.598Z,8.87
2023-05-17T02:55:06.118Z,8.87
2023-05-17T02:56:06.624Z,8.84
2023-05-17T02:57:07.498Z,8.82
2023-05-17T02:58:07.206Z,8.78
2023-05-17T02:59:08.088Z,8.77
2023-05-17T03:00:08.882Z,8.78
2023-05-17T03:01:09.937Z,8.79
2023-05-17T03:02:09.721Z,8.71
2023-05-17T03:03:10.784Z,8.75
2023-05-17T03:04:10.739Z,8.75
2023-05-17T03:05:11.219Z,8.64
2023-05-17T03:06:12.627Z,8.6
2023-05-17T03:07:13.135Z,8.61
2023-05-17T03:08:12.799Z,8.6
2023-05-17T03:09:13.088Z,8.39
2023-05-17T03:10:13.835Z,8.39
2023-05-17T03:11:13.557Z,8.34
2023-05-17T03:12:14.043Z,8.26
2023-05-17T03:13:14.821Z,8.31
2023-05-17T03:14:15.299Z,8.17
2023-05-17T03:15:15.749Z,8.32
2023-05-17T03:16:16.960Z,8.27
2023-05-17T03:17:16.935Z,8.31
2023-05-17T03:18:17.515Z,8.28
2023-05-17T03:19:17.928Z,8.28
2023-05-17T03:20:18.078Z,8.38
2023-05-17T03:21:19.124Z,8.34
2023-05-17T03:22:19.046Z,8.32
2023-05-17T03:24:19.497Z,8.35
2023-05-17T03:25:20.239Z,8.45
2023-05-17T03:26:21.185Z,8.41
2023-05-17T03:27:21.776Z,8.41
2023-05-17T03:28:22.527Z,8.36
2023-05-17T03:29:23.409Z,8.32
2023-05-17T03:30:24.629Z,8.27
2023-05-17T03:31:24.518Z,8.31
2023-05-17T03:32:25.749Z,8.28
2023-05-17T03:33:26.990Z,8.31
2023-05-17T03:34:27.461Z,8.32
2023-05-17T03:35:28.926Z,8.31
2023-05-17T03:36:29.132Z,8.32
2023-05-17T03:37:29.010Z,8.31
2023-05-17T03:38:29.927Z,8.32
2023-05-17T03:39:30.640Z,8.35
2023-05-17T03:40:31.534Z,8.28
2023-05-17T03:41:32.004Z,8.32
2023-05-17T03:42:32.569Z,8.35
2023-05-17T03:43:32.814Z,8.39
2023-05-17T03:44:33.932Z,8.35
2023-05-17T03:45:34.816Z,8.42
2023-05-17T03:46:35.712Z,8.34
2023-05-17T03:47:36.005Z,8.38
2023-05-17T03:48:39.686Z,8.38
2023-05-17T03:50:38.326Z,8.42
2023-05-17T03:51:39.036Z,8.36
2023-05-17T03:52:39.003Z,8.46
2023-05-17T03:53:39.534Z,8.45
2023-05-17T03:54:39.830Z,8.42
2023-05-17T03:55:40.662Z,8.5
2023-05-17T03:56:41.219Z,8.52
2023-05-17T03:57:41.891Z,8.5
2023-05-17T03:58:42.777Z,8.53
2023-05-17T03:59:43.270Z,8.52
2023-05-17T04:00:43.741Z,8.52
2023-05-17T04:01:44.588Z,8.53
2023-05-17T04:02:45.229Z,8.54
2023-05-17T04:03:46.510Z,8.52
2023-05-17T04:04:47.560Z,8.46
2023-05-17T04:05:48.257Z,8.6
2023-05-17T04:06:49.142Z,8.56
2023-05-17T04:07:49.114Z,8.45
2023-05-17T04:08:49.975Z,8.63
2023-05-17T04:09:50.721Z,8.49
2023-05-17T04:10:51.665Z,8.54
2023-05-17T04:11:51.878Z,8.6
2023-05-17T04:12:52.731Z,8.44
2023-05-17T04:13:53.296Z,8.39
2023-05-17T04:14:53.637Z,8.42
2023-05-17T04:15:53.708Z,8.46
2023-05-17T04:16:54.738Z,8.41
2023-05-17T04:17:55.724Z,8.56
2023-05-17T04:18:55.915Z,8.42
2023-05-17T04:19:56.657Z,8.53
2023-05-17T04:20:56.649Z,8.46
2023-05-17T04:21:57.443Z,8.52
2023-05-17T04:22:58.236Z,8.41
2023-05-17T04:23:59.633Z,8.46
2023-05-17T04:24:59.365Z,8.5
2023-05-17T04:26:00.309Z,8.44
2023-05-17T04:27:03.773Z,8.52
2023-05-17T04:28:01.459Z,8.5
2023-05-17T04:29:01.767Z,8.54
2023-05-17T04:30:03.338Z,8.45
2023-05-17T04:31:03.360Z,8.59
2023-05-17T04:32:04.006Z,8.44
2023-05-17T04:33:04.283Z,8.41
2023-05-17T04:34:04.908Z,8.44
2023-05-17T04:35:05.566Z,8.28
2023-05-17T04:36:06.252Z,8.28
2023-05-17T04:37:07.102Z,8.36
2023-05-17T04:38:08.203Z,8.32
2023-05-17T04:39:09.297Z,8.35
2023-05-17T04:40:09.988Z,8.27
2023-05-17T04:41:10.502Z,8.31
2023-05-17T04:42:11.213Z,8.31
2023-05-17T04:43:11.894Z,8.32
2023-05-17T04:44:12.075Z,8.28
2023-05-17T04:45:15.895Z,8.28
2023-05-17T04:46:14.166Z,8.32
2023-05-17T04:47:14.442Z,8.39
2023-05-17T04:48:14.660Z,8.45
2023-05-17T04:49:14.729Z,8.39
2023-05-17T04:50:15.417Z,8.42
2023-05-17T04:51:15.878Z,8.32
2023-05-17T04:52:16.614Z,8.27
2023-05-17T04:53:17.660Z,8.34
2023-05-17T04:54:18.426Z,8.35
2023-05-17T04:55:18.550Z,8.27
2023-05-17T04:56:19.673Z,8.38
2023-05-17T04:57:20.542Z,8.38
2023-05-17T04:58:21.212Z,8.36
2023-05-17T04:59:21.903Z,8.35
2023-05-17T05:00:22.642Z,8.39
2023-05-17T05:01:23.407Z,8.39
2023-05-17T05:02:24.307Z,8.35
2023-05-17T05:03:24.511Z,8.36
2023-05-17T05:04:25.271Z,8.39
2023-05-17T05:05:26.858Z,8.41
2023-05-17T05:06:27.078Z,8.45
2023-05-17T05:07:28.390Z,8.41
2023-05-17T05:08:28.403Z,8.38
2023-05-17T05:09:29.121Z,8.41
2023-05-17T05:10:29.799Z,8.38
2023-05-17T05:11:30.694Z,8.41
2023-05-17T05:12:31.431Z,8.41
2023-05-17T05:13:32.144Z,8.45
2023-05-17T05:14:32.890Z,8.38
2023-05-17T05:15:33.734Z,8.45
2023-05-17T05:16:34.414Z,8.52
2023-05-17T05:17:35.655Z,8.39
2023-05-17T05:18:36.142Z,8.38
2023-05-17T05:19:36.594Z,8.42
2023-05-17T05:20:36.634Z,8.46
2023-05-17T05:21:37.131Z,8.39
2023-05-17T05:22:37.922Z,8.52
2023-05-17T05:23:38.029Z,8.52
2023-05-17T05:24:39.047Z,8.53
2023-05-17T05:25:39.791Z,8.53
2023-05-17T05:26:39.680Z,8.53
2023-05-17T05:27:40.421Z,8.59
2023-05-17T05:28:40.942Z,8.49
2023-05-17T05:29:41.275Z,8.5
2023-05-17T05:30:42.389Z,8.53
2023-05-17T05:31:42.724Z,8.52
2023-05-17T05:32:43.580Z,8.54
2023-05-17T05:33:44.258Z,8.5
2023-05-17T05:35:44.492Z,8.53
2023-05-17T05:36:45.212Z,8.6
2023-05-17T05:37:46.207Z,8.52
2023-05-17T05:38:46.390Z,8.6
2023-05-17T05:39:47.067Z,8.54
2023-05-17T05:40:47.375Z,8.54
2023-05-17T05:41:48.127Z,8.52
2023-05-17T05:42:48.414Z,8.59
2023-05-17T05:43:49.136Z,8.52
2023-05-17T05:44:49.346Z,8.6
2023-05-17T05:45:49.464Z,8.64
2023-05-17T05:46:49.334Z,8.59
2023-05-17T05:47:50.233Z,8.59
2023-05-17T05:48:50.729Z,8.52
2023-05-17T05:49:51.480Z,8.57
2023-05-17T05:50:51.948Z,8.63
2023-05-17T05:51:52.641Z,8.59
2023-05-17T05:53:06.970Z,8.54
2023-05-17T05:53:53.684Z,8.68
2023-05-17T05:54:54.635Z,8.66
2023-05-17T05:55:55.261Z,8.66
2023-05-17T05:56:55.959Z,8.74
2023-05-17T05:57:56.323Z,8.69
2023-05-17T05:58:56.863Z,8.72
2023-05-17T05:59:57.249Z,8.68
2023-05-17T06:00:58.018Z,8.72
2023-05-17T06:01:58.591Z,8.71
2023-05-17T06:02:59.398Z,8.68
2023-05-17T06:03:59.464Z,8.71
2023-05-17T06:04:59.563Z,8.77
2023-05-17T06:06:00.885Z,8.75
2023-05-17T06:07:01.025Z,8.74
2023-05-17T06:08:02.103Z,8.77
2023-05-17T06:09:05.124Z,8.72
2023-05-17T06:11:03.357Z,8.74
2023-05-17T06:12:03.827Z,8.69
2023-05-17T06:13:04.569Z,8.69
2023-05-17T06:14:05.683Z,8.64
2023-05-17T06:15:06.192Z,8.68
2023-05-17T06:16:07.107Z,8.66
2023-05-17T06:17:07.840Z,8.74
2023-05-17T06:18:09.189Z,8.79
2023-05-17T06:19:09.539Z,8.72
2023-05-17T06:20:10.475Z,8.81
2023-05-17T06:21:11.177Z,8.71
2023-05-17T06:22:11.879Z,8.84
2023-05-17T06:23:13.165Z,8.79
2023-05-17T06:24:12.879Z,8.72
2023-05-17T06:25:13.489Z,8.82
2023-05-17T06:26:13.803Z,8.78
2023-05-17T06:27:14.512Z,8.86
2023-05-17T06:28:15.026Z,8.84
2023-05-17T06:29:16.260Z,8.81
2023-05-17T06:30:15.987Z,8.92
2023-05-17T06:31:16.231Z,8.9
2023-05-17T06:32:17.064Z,8.92
2023-05-17T06:33:18.420Z,8.93
2023-05-17T06:34:19.192Z,8.93
2023-05-17T06:35:19.418Z,8.93
2023-05-17T06:36:20.822Z,8.93
2023-05-17T06:37:21.020Z,8.89
2023-05-17T06:38:22.291Z,8.97
2023-05-17T06:39:22.650Z,8.97
2023-05-17T06:40:23.026Z,8.96
2023-05-17T06:41:23.554Z,8.96
2023-05-17T06:42:24.434Z,8.99
2023-05-17T06:43:24.848Z,8.99
2023-05-17T06:44:25.705Z,9.02
2023-05-17T06:45:25.931Z,9.03
2023-05-17T06:46:26.651Z,9
2023-05-17T06:47:27.913Z,9.02
2023-05-17T06:48:28.326Z,9.05
2023-05-17T06:49:28.729Z,9.09
2023-05-17T06:50:30.033Z,9.13
2023-05-17T06:51:29.898Z,9.16
2023-05-17T06:52:30.400Z,9.11
2023-05-17T06:53:31.599Z,9.08
2023-05-17T06:54:31.522Z,9
2023-05-17T06:55:32.628Z,9.08
2023-05-17T06:56:32.439Z,9.02
2023-05-17T06:57:32.957Z,9.02
2023-05-17T06:58:33.672Z,9.08
2023-05-17T06:59:34.572Z,9.09
2023-05-17T07:00:35.875Z,9.09
2023-05-17T07:01:35.774Z,9.05
2023-05-17T07:02:39.333Z,9.02
2023-05-17T07:04:38.214Z,9.02
2023-05-17T07:05:39.293Z,8.99
2023-05-17T07:06:40.014Z,9.08
2023-05-17T07:07:40.325Z,9.09
2023-05-17T07:08:41.250Z,9.09
2023-05-17T07:09:41.361Z,9.11
2023-05-17T07:10:41.282Z,9.08
2023-05-17T07:11:42.221Z,9.02
2023-05-17T07:12:43.339Z,9.09
2023-05-17T07:13:44.275Z,9.03
2023-05-17T07:14:44.781Z,8.96
2023-05-17T07:15:45.502Z,8.99
2023-05-17T07:16:46.052Z,8.93
2023-05-17T07:17:47.108Z,8.92
2023-05-17T07:18:47.402Z,8.99
2023-05-17T07:19:48.505Z,8.95
2023-05-17T07:20:48.731Z,8.95
2023-05-17T07:21:49.249Z,8.89
2023-05-17T07:22:49.756Z,8.82
2023-05-17T07:23:50.813Z,8.78
2023-05-17T07:24:51.698Z,8.79
2023-05-17T07:25:52.679Z,8.77
2023-05-17T07:26:54.063Z,8.77
2023-05-17T07:27:53.788Z,8.77
2023-05-17T07:28:54.763Z,8.78
2023-05-17T07:29:54.882Z,8.79
2023-05-17T07:30:55.798Z,8.81
2023-05-17T07:31:57.373Z,8.89
2023-05-17T07:32:57.073Z,8.86
2023-05-17T07:33:58.159Z,8.86
2023-05-17T07:34:58.419Z,8.79
2023-05-17T07:35:59.755Z,8.97
2023-05-17T07:37:00.478Z,8.96
2023-05-17T07:38:00.402Z,9
2023-05-17T07:39:01.902Z,9.03
2023-05-17T07:40:01.439Z,9.03
2023-05-17T07:41:02.122Z,8.93
2023-05-17T07:42:05.841Z,9.03
2023-05-17T07:43:03.601Z,9
2023-05-17T07:44:04.091Z,9.08
2023-05-17T07:45:05.030Z,9.08
2023-05-17T07:46:05.941Z,9.05
2023-05-17T07:47:06.111Z,9.08
2023-05-17T07:48:06.576Z,9.05
2023-05-17T07:49:07.364Z,9.08
2023-05-17T07:50:07.131Z,9.05
2023-05-17T07:51:07.880Z,9.11
2023-05-17T07:52:08.393Z,9.08
2023-05-17T07:53:09.332Z,9.09
2023-05-17T07:54:10.571Z,9.02
2023-05-17T07:55:10.504Z,8.95
2023-05-17T07:56:10.818Z,9.13
2023-05-17T07:57:11.477Z,9.03
2023-05-17T07:58:12.587Z,9.09
2023-05-17T07:59:13.182Z,9.05
2023-05-17T08:00:13.891Z,9.11
2023-05-17T08:01:14.515Z,9.16
2023-05-17T08:02:15.204Z,9.13
2023-05-17T08:03:17.934Z,9.11
2023-05-17T08:04:16.931Z,9.11
2023-05-17T08:05:17.383Z,9.09
2023-05-17T08:06:17.731Z,9.21
2023-05-17T08:07:17.777Z,9.21
2023-05-17T08:08:18.938Z,9.24
2023-05-17T08:09:19.669Z,9.24
2023-05-17T08:10:20.409Z,9.16
2023-05-17T08:11:20.992Z,9.21
2023-05-17T08:12:21.569Z,9.22
2023-05-17T08:13:22.487Z,9.26
2023-05-17T08:14:22.817Z,9.19
2023-05-17T08:15:23.539Z,9.22
2023-05-17T08:16:23.606Z,9.18
2023-05-17T08:17:24.750Z,9.33
2023-05-17T08:18:25.124Z,9.31
2023-05-17T08:19:25.844Z,9.26
2023-05-17T08:20:25.913Z,9.29
2023-05-17T08:21:26.244Z,9.26
2023-05-17T08:22:27.366Z,9.26
2023-05-17T08:23:27.352Z,9.18
2023-05-17T08:24:28.472Z,9.18
2023-05-17T08:25:29.004Z,9.05
2023-05-17T08:26:29.137Z,9.21
2023-05-17T08:27:29.836Z,9.09
2023-05-17T08:28:30.632Z,9.16
2023-05-17T08:29:31.475Z,9.22
2023-05-17T08:30:34.810Z,9.16
2023-05-17T08:32:33.257Z,9.3
2023-05-17T08:33:34.639Z,9.29
2023-05-17T08:34:34.863Z,9.27
2023-05-17T08:35:35.287Z,9.36
2023-05-17T08:36:35.365Z,9.36
2023-05-17T08:37:36.188Z,9.34
2023-05-17T08:38:36.828Z,9.36
2023-05-17T08:39:37.854Z,9.29
2023-05-17T08:40:38.608Z,9.24
2023-05-17T08:41:38.818Z,9.29
2023-05-17T08:42:38.769Z,9.26
2023-05-17T08:43:39.524Z,9.31
2023-05-17T08:44:39.769Z,9.3
2023-05-17T08:45:40.887Z,9.29
2023-05-17T08:46:41.410Z,9.24
2023-05-17T08:47:42.661Z,9.33
2023-05-17T08:48:43.364Z,9.22
2023-05-17T08:49:48.216Z,9.29
2023-05-17T08:50:45.122Z,9.29
2023-05-17T08:51:45.749Z,9.3
2023-05-17T08:52:46.794Z,9.3
2023-05-17T08:53:47.512Z,9.29
2023-05-17T08:54:48.662Z,9.29
2023-05-17T08:55:49.593Z,9.29
2023-05-17T08:57:49.596Z,9.33
2023-05-17T08:59:02.859Z,9.34
2023-05-17T09:00:51.454Z,9.33
2023-05-17T09:01:52.363Z,9.37
2023-05-17T09:02:53.557Z,9.42
2023-05-17T09:03:54.192Z,9.45
2023-05-17T09:04:54.360Z,9.52
2023-05-17T09:05:55.144Z,9.48
2023-05-17T09:06:55.564Z,9.54
2023-05-17T09:07:56.551Z,9.54
2023-05-17T09:08:57.510Z,9.52
2023-05-17T09:09:57.688Z,9.49
2023-05-17T09:10:58.600Z,9.44
2023-05-17T09:11:58.621Z,9.34
2023-05-17T09:12:59.223Z,9.34
2023-05-17T09:14:00.150Z,9.33
2023-05-17T09:15:01.013Z,9.3
2023-05-17T09:16:01.958Z,9.36
2023-05-17T09:17:02.944Z,9.45
2023-05-17T09:18:03.611Z,9.47
2023-05-17T09:19:05.476Z,9.48
2023-05-17T09:20:05.868Z,9.37
2023-05-17T09:21:05.830Z,9.47
2023-05-17T09:22:06.821Z,9.4
2023-05-17T09:23:07.121Z,9.4
2023-05-17T09:24:13.456Z,9.44
2023-05-17T09:26:09.420Z,9.45
2023-05-17T09:27:10.173Z,9.49
2023-05-17T09:28:11.105Z,9.44
2023-05-17T09:29:12.345Z,9.44
2023-05-17T09:30:13.295Z,9.34
2023-05-17T09:31:13.423Z,9.4
2023-05-17T09:32:14.250Z,9.36
2023-05-17T09:33:19.165Z,9.34
2023-05-17T09:34:16.139Z,9.36
2023-05-17T09:35:16.784Z,9.36
2023-05-17T09:36:17.301Z,9.36
2023-05-17T09:37:18.158Z,9.39
2023-05-17T09:38:17.904Z,9.33
2023-05-17T09:39:19.466Z,9.36
2023-05-17T09:40:19.622Z,9.36
2023-05-17T09:41:19.528Z,9.33
2023-05-17T09:42:20.694Z,9.33
2023-05-17T09:43:20.828Z,9.42
2023-05-17T09:44:21.069Z,9.44
2023-05-17T09:45:21.022Z,9.47
2023-05-17T09:46:21.268Z,9.49
2023-05-17T09:47:21.813Z,9.52
2023-05-17T09:48:22.326Z,9.52
2023-05-17T09:49:22.980Z,9.63
2023-05-17T09:50:26.494Z,9.69
2023-05-17T09:51:23.492Z,9.69
2023-05-17T09:52:24.672Z,9.72
2023-05-17T09:53:24.636Z,9.7
2023-05-17T09:54:25.007Z,9.67
2023-05-17T09:55:26.076Z,9.69
2023-05-17T09:56:26.389Z,9.7
2023-05-17T09:57:27.537Z,9.8
2023-05-17T09:58:27.450Z,9.73
2023-05-17T09:59:28.619Z,9.81
2023-05-17T10:00:29.368Z,9.81
2023-05-17T10:01:30.264Z,9.87
2023-05-17T10:02:30.515Z,9.85
2023-05-17T10:03:30.902Z,9.92
2023-05-17T10:04:31.673Z,9.9
2023-05-17T10:05:32.376Z,9.82
2023-05-17T10:06:52.837Z,9.87
2023-05-17T10:08:41.415Z,9.9
2023-05-17T10:09:42.132Z,9.87
2023-05-17T10:10:42.379Z,9.91
2023-05-17T10:11:42.499Z,9.95
2023-05-17T10:12:42.484Z,10.02
2023-05-17T10:13:43.664Z,10.02
2023-05-17T10:14:44.540Z,10.1
2023-05-17T10:15:45.473Z,10.13
2023-05-17T10:16:46.574Z,10.12
2023-05-17T10:17:49.751Z,10.18
2023-05-17T10:19:49.046Z,10.23
2023-05-17T10:20:49.295Z,10.23
2023-05-17T10:21:50.126Z,10.31
2023-05-17T10:22:50.883Z,10.38
2023-05-17T10:23:51.876Z,10.36
2023-05-17T10:24:52.649Z,10.38
2023-05-17T10:25:52.814Z,10.39
2023-05-17T10:26:53.594Z,10.42
2023-05-17T10:27:54.392Z,10.48
2023-05-17T10:28:54.500Z,10.43
2023-05-17T10:29:56.681Z,10.51
2023-05-17T10:31:56.113Z,10.68
2023-05-17T10:32:57.354Z,10.67
2023-05-17T10:33:57.773Z,10.58
2023-05-17T10:35:12.812Z,10.69
2023-05-17T10:36:59.597Z,10.71
2023-05-17T10:38:00.647Z,10.79
2023-05-17T10:39:00.971Z,10.82
2023-05-17T10:40:01.871Z,10.98
2023-05-17T10:41:02.925Z,10.92
2023-05-17T10:42:20.158Z,11.1
2023-05-17T10:44:04.638Z,11.23
2023-05-17T10:45:04.755Z,11.45
2023-05-17T10:46:05.247Z,11.56
2023-05-17T10:47:06.189Z,11.74
2023-05-17T10:48:07.349Z,11.89
2023-05-17T10:49:07.901Z,11.99
2023-05-17T10:50:07.437Z,12.05
2023-05-17T10:51:08.512Z,12.11
2023-05-17T10:52:08.469Z,12.18
2023-05-17T10:53:09.223Z,12.2
2023-05-17T10:54:09.998Z,12.37
2023-05-17T10:55:10.708Z,12.54
2023-05-17T10:56:10.861Z,12.78
2023-05-17T10:57:13.478Z,12.87
2023-05-17T10:59:12.063Z,13.05
2023-05-17T11:00:13.067Z,12.94
2023-05-17T11:01:13.162Z,12.87
2023-05-17T11:02:14.203Z,12.76
2023-05-17T11:03:14.471Z,12.87
2023-05-17T11:04:15.594Z,12.78
2023-05-17T11:05:16.309Z,12.83
2023-05-17T11:06:26.054Z,12.83
2023-05-17T11:09:18.229Z,13.01
2023-05-17T11:10:18.790Z,12.93
2023-05-17T11:11:19.091Z,12.95
2023-05-17T11:12:19.771Z,12.9
2023-05-17T11:13:20.376Z,12.86
2023-05-17T11:14:21.091Z,12.94
2023-05-17T11:15:21.582Z,12.98
2023-05-17T11:16:23.750Z,13.05
2023-05-17T11:18:41.798Z,13.01
2023-05-17T11:19:23.422Z,13.03
2023-05-17T11:20:23.727Z,13.06
2023-05-17T11:21:23.639Z,13.03
2023-05-17T11:22:24.108Z,12.98
2023-05-17T11:23:25.301Z,13.05
2023-05-17T11:24:27.852Z,13.08
2023-05-17T11:26:27.921Z,13.11
2023-05-17T11:27:28.614Z,13.13
2023-05-17T11:29:29.347Z,13.26
2023-05-17T11:30:30.869Z,13.21
2023-05-17T11:31:30.919Z,13.42
2023-05-17T11:32:31.638Z,13.33
2023-05-17T11:33:39.588Z,13.37
2023-05-17T11:35:33.837Z,13.58
2023-05-17T11:36:34.354Z,13.67
2023-05-17T11:37:35.505Z,13.61
2023-05-17T11:38:36.295Z,13.6
2023-05-17T11:39:37.314Z,13.6
2023-05-17T11:40:38.212Z,13.61
2023-05-17T11:41:38.968Z,13.64
2023-05-17T11:42:38.684Z,13.61
2023-05-17T11:43:39.398Z,13.64
2023-05-17T11:44:40.452Z,13.62
2023-05-17T11:45:41.337Z,13.65
2023-05-17T11:46:41.849Z,13.67
2023-05-17T11:47:42.605Z,13.71
2023-05-17T11:48:43.009Z,13.78
2023-05-17T11:49:43.674Z,13.82
2023-05-17T11:50:43.499Z,13.89
2023-05-17T11:51:44.505Z,13.97
2023-05-17T11:52:45.409Z,13.95
2023-05-17T11:53:45.279Z,14.05
2023-05-17T11:54:46.311Z,14.15
2023-05-17T11:55:46.414Z,14.07
2023-05-17T11:56:49.681Z,14.03
2023-05-17T11:59:49.006Z,13.87
2023-05-17T12:00:49.488Z,13.79
2023-05-17T12:01:50.389Z,13.83
2023-05-17T12:02:51.003Z,13.85
2023-05-17T12:03:51.906Z,13.76
2023-05-17T12:04:52.849Z,13.85
2023-05-17T12:05:53.655Z,13.82
2023-05-17T12:06:55.010Z,13.7
2023-05-17T12:07:55.565Z,13.71
2023-05-17T12:08:56.513Z,13.75
2023-05-17T12:09:57.257Z,13.68
2023-05-17T12:10:57.964Z,13.83
2023-05-17T12:11:58.689Z,13.98
2023-05-17T12:12:58.853Z,14.01
2023-05-17T12:13:58.958Z,14
2023-05-17T12:14:59.251Z,14.19
2023-05-17T12:15:59.728Z,14.19
2023-05-17T12:17:00.651Z,14.3
2023-05-17T12:18:01.583Z,14.31
2023-05-17T12:19:02.398Z,14.38
2023-05-17T12:20:02.747Z,14.41
2023-05-17T12:21:03.115Z,14.48
2023-05-17T12:22:03.642Z,14.45
2023-05-17T12:23:04.576Z,14.43
2023-05-17T12:24:05.541Z,14.41
2023-05-17T12:25:05.963Z,14.37
2023-05-17T12:26:06.480Z,14.31
2023-05-17T12:27:07.728Z,14.33
2023-05-17T12:28:08.488Z,14.05
2023-05-17T12:29:12.163Z,13.8
2023-05-17T12:30:09.376Z,13.75
2023-05-17T12:31:10.183Z,13.65
2023-05-17T12:32:11.231Z,13.5
2023-05-17T12:33:11.540Z,13.46
2023-05-17T12:34:12.101Z,13.37
2023-05-17T12:35:12.341Z,13.42
2023-05-17T12:36:12.442Z,13.43
2023-05-17T12:37:13.487Z,13.42
2023-05-17T12:38:13.586Z,13.49
2023-05-17T12:39:14.096Z,13.52
2023-05-17T12:40:14.388Z,13.55
2023-05-17T12:41:14.874Z,13.55
2023-05-17T12:42:15.662Z,13.58
2023-05-17T12:43:16.360Z,13.65
2023-05-17T12:44:21.302Z,13.68
2023-05-17T12:46:18.001Z,13.7
2023-05-17T12:47:18.694Z,13.7
2023-05-17T12:48:19.813Z,13.75
2023-05-17T12:49:20.587Z,13.73
2023-05-17T12:50:21.735Z,13.7
2023-05-17T12:51:22.413Z,13.71
2023-05-17T12:52:23.374Z,13.78
2023-05-17T12:53:23.448Z,13.73
2023-05-17T12:54:23.525Z,13.68
2023-05-17T12:55:24.645Z,13.64
2023-05-17T12:56:25.333Z,13.58
2023-05-17T12:57:26.334Z,13.55
2023-05-17T12:58:26.071Z,13.58
2023-05-17T12:59:27.299Z,13.55
2023-05-17T13:00:28.728Z,13.5
2023-05-17T13:01:29.131Z,13.4
2023-05-17T13:02:30.345Z,13.46
2023-05-17T13:03:31.072Z,13.31
2023-05-17T13:04:31.347Z,13.27
2023-05-17T13:05:32.207Z,13.2
2023-05-17T13:06:32.718Z,13.17
2023-05-17T13:07:33.642Z,13.09
2023-05-17T13:08:34.144Z,13.09
2023-05-17T13:09:34.629Z,13.09
2023-05-17T13:10:35.642Z,13.12
2023-05-17T13:11:35.925Z,13.08
2023-05-17T13:12:37.035Z,13.13
2023-05-17T13:13:37.529Z,13.2
2023-05-17T13:14:38.307Z,13.11
2023-05-17T13:15:38.365Z,13.02
2023-05-17T13:16:38.801Z,13.06
2023-05-17T13:17:39.922Z,12.87
2023-05-17T13:18:40.199Z,12.9
2023-05-17T13:19:41.173Z,12.91
2023-05-17T13:20:41.042Z,12.87
2023-05-17T13:21:41.970Z,12.9
2023-05-17T13:22:42.685Z,12.86
2023-05-17T13:23:43.404Z,12.95
2023-05-17T13:24:44.430Z,12.98
2023-05-17T13:25:44.598Z,13.05
2023-05-17T13:26:45.691Z,13.03
2023-05-17T13:27:46.556Z,13.09
2023-05-17T13:28:46.743Z,13.11
2023-05-17T13:29:47.388Z,13.12
2023-05-17T13:30:48.353Z,13.16
2023-05-17T13:31:48.636Z,13.12
2023-05-17T13:32:49.337Z,13.23
2023-05-17T13:33:50.703Z,13.21
2023-05-17T13:34:51.083Z,13.16
2023-05-17T13:35:51.976Z,13.21
2023-05-17T13:36:52.840Z,13.17
2023-05-17T13:37:53.787Z,13.12
2023-05-17T13:38:54.450Z,13.23
2023-05-17T13:39:55.285Z,13.12
2023-05-17T13:40:56.232Z,13.17
2023-05-17T13:41:57.139Z,13.13
2023-05-17T13:42:57.937Z,13.19
2023-05-17T13:43:58.064Z,13.17
2023-05-17T13:44:58.793Z,13.09
2023-05-17T13:46:00.015Z,13.16
2023-05-17T13:47:00.741Z,13.19